Terminal Aerodrome Forecast
Issued by NWS Grand Forks, ND

Home | Current Version | Previous Version | Text Only | Print | Product List | Glossary Off
Versions: 1 2 3 4 5 6 7 8 9 10 11 12

000
FTUS43 KFGF 190520
TAFGFK
TAF
KGFK 190520Z 1906/2006 24009KT P6SM FEW250
     FM190900 23005KT P6SM SKC
     FM191400 17009KT P6SM FEW250
     FM192000 19013KT P6SM FEW250
     FM200000 18009KT P6SM SKC=

USA.gov is the U.S. government's official web portal to all federal, state and local government web resources and services.